createdAt,value
2022-10-23T00:01:02.418Z,10.34
2022-10-23T00:03:31.558Z,10.31
2022-10-23T00:05:59.370Z,10.28
2022-10-23T00:08:27.214Z,10.24
2022-10-23T00:10:55.017Z,10.20
2022-10-23T00:13:22.866Z,10.17
2022-10-23T00:18:23.762Z,10.10
2022-10-23T00:20:52.868Z,10.08
2022-10-23T00:23:20.663Z,10.04
2022-10-23T00:25:48.541Z,10.01
2022-10-23T00:28:16.332Z,9.97
2022-10-23T00:30:44.301Z,9.95
2022-10-23T00:33:12.173Z,9.91
2022-10-23T00:35:40.417Z,9.88
2022-10-23T00:38:10.203Z,9.84
2022-10-23T00:40:38.864Z,9.81
2022-10-23T00:43:17.266Z,9.77
2022-10-23T00:45:45.235Z,9.76
2022-10-23T00:48:13.561Z,9.73
2022-10-23T00:50:41.633Z,9.73
2022-10-23T00:53:12.942Z,9.72
2022-10-23T00:55:46.642Z,9.72
2022-10-23T00:58:14.830Z,9.69
2022-10-23T01:00:45.790Z,9.67
2022-10-23T01:03:14.891Z,9.65
2022-10-23T01:08:30.307Z,9.60
2022-10-23T01:11:05.244Z,9.58
2022-10-23T01:13:42.691Z,9.55
2022-10-23T01:16:17.796Z,9.54
2022-10-23T01:18:50.227Z,9.53
2022-10-23T01:21:25.041Z,9.51
2022-10-23T01:24:11.260Z,9.49
2022-10-23T01:26:56.262Z,9.48
2022-10-23T01:29:34.579Z,9.46
2022-10-23T01:32:08.413Z,9.45
2022-10-23T01:34:46.483Z,9.41
2022-10-23T01:37:21.029Z,9.39
2022-10-23T01:39:52.972Z,9.35
2022-10-23T01:42:25.755Z,9.33
2022-10-23T01:45:01.138Z,9.30
2022-10-23T01:47:40.660Z,9.28
2022-10-23T01:50:14.335Z,9.26
2022-10-23T01:52:45.415Z,9.22
2022-10-23T01:55:14.487Z,9.20
2022-10-23T01:57:45.534Z,9.18
2022-10-23T02:00:18.066Z,9.15
2022-10-23T02:02:53.906Z,9.13
2022-10-23T02:05:28.420Z,9.11
2022-10-23T02:07:58.115Z,9.07
2022-10-23T02:10:32.122Z,9.03
2022-10-23T02:13:05.243Z,9.00
2022-10-23T02:15:40.508Z,8.98
2022-10-23T02:18:15.223Z,8.95
2022-10-23T02:20:45.661Z,8.90
2022-10-23T02:23:20.350Z,8.86
2022-10-23T02:25:54.614Z,8.84
2022-10-23T02:28:27.576Z,8.80
2022-10-23T02:31:01.547Z,8.77
2022-10-23T02:33:32.916Z,8.76
2022-10-23T02:36:00.947Z,8.72
2022-10-23T02:38:41.233Z,8.67
2022-10-23T02:41:25.341Z,8.65
2022-10-23T02:44:04.932Z,8.60
2022-10-23T02:46:46.276Z,8.55
2022-10-23T02:49:20.171Z,8.54
2022-10-23T02:51:59.044Z,8.50
2022-10-23T02:54:36.905Z,8.48
2022-10-23T02:57:14.790Z,8.44
2022-10-23T02:59:46.407Z,8.40
2022-10-23T03:02:22.929Z,8.37
2022-10-23T03:04:52.841Z,8.33
2022-10-23T03:07:21.992Z,8.30
2022-10-23T03:09:49.987Z,8.27
2022-10-23T03:12:17.762Z,8.25
2022-10-23T03:14:45.641Z,8.25
2022-10-23T03:17:13.453Z,8.25
2022-10-23T03:19:42.669Z,8.26
2022-10-23T03:22:10.494Z,8.24
2022-10-23T03:24:38.357Z,8.25
2022-10-23T03:27:06.116Z,8.24
2022-10-23T03:29:33.991Z,8.22
2022-10-23T03:32:01.781Z,8.22
2022-10-23T03:34:29.622Z,8.19
2022-10-23T03:36:58.701Z,8.17
2022-10-23T03:39:26.611Z,8.15
2022-10-23T03:41:54.454Z,8.12
2022-10-23T03:44:22.376Z,8.09
2022-10-23T03:46:50.225Z,8.07
2022-10-23T03:49:18.050Z,8.04
2022-10-23T03:51:52.078Z,8.00
2022-10-23T03:54:24.873Z,7.99
2022-10-23T03:56:56.505Z,7.97
2022-10-23T03:59:25.439Z,7.94
2022-10-23T04:01:53.878Z,7.94
2022-10-23T04:04:21.843Z,7.90
2022-10-23T04:06:49.589Z,7.90
2022-10-23T04:09:17.918Z,7.88
2022-10-23T04:11:47.155Z,7.89
2022-10-23T04:14:15.574Z,7.89
2022-10-23T04:16:43.759Z,7.87
2022-10-23T04:19:11.725Z,7.86
2022-10-23T04:21:39.557Z,7.84
2022-10-23T04:24:07.934Z,7.83
2022-10-23T04:26:35.942Z,7.82
2022-10-23T04:29:05.066Z,7.81
2022-10-23T04:31:32.953Z,7.79
2022-10-23T04:34:00.746Z,7.75
2022-10-23T04:36:31.051Z,7.73
2022-10-23T04:39:05.626Z,7.70
2022-10-23T04:41:33.664Z,7.70
2022-10-23T04:44:01.635Z,7.69
2022-10-23T04:46:30.903Z,7.69
2022-10-23T04:48:58.799Z,7.68
2022-10-23T04:51:44.924Z,7.65
2022-10-23T04:54:37.126Z,7.62
2022-10-23T04:57:43.598Z,7.59
2022-10-23T05:00:15.611Z,7.57
2022-10-23T05:02:54.321Z,7.55
2022-10-23T05:05:22.895Z,7.53
2022-10-23T05:08:17.140Z,7.52
2022-10-23T05:11:04.915Z,7.51
2022-10-23T05:13:37.547Z,7.50
2022-10-23T05:16:05.879Z,7.48
2022-10-23T05:18:39.193Z,7.48
2022-10-23T05:21:11.125Z,7.47
2022-10-23T05:23:43.238Z,7.46
2022-10-23T05:26:11.356Z,7.46
2022-10-23T05:28:40.225Z,7.46
2022-10-23T05:31:10.175Z,7.48
2022-10-23T05:33:42.531Z,7.48
2022-10-23T05:36:10.930Z,7.49
2022-10-23T05:38:38.919Z,7.49
2022-10-23T05:41:13.840Z,7.49
2022-10-23T05:43:41.991Z,7.50
2022-10-23T05:46:42.237Z,7.51
2022-10-23T05:49:27.599Z,7.51
2022-10-23T05:52:31.179Z,7.53
2022-10-23T05:55:30.512Z,7.53
2022-10-23T05:58:16.486Z,7.54
2022-10-23T06:01:00.473Z,7.54
2022-10-23T06:03:51.163Z,7.56
2022-10-23T06:06:23.072Z,7.60
2022-10-23T06:08:51.417Z,7.62
2022-10-23T06:11:22.080Z,7.64
2022-10-23T06:14:00.770Z,7.67
2022-10-23T06:16:28.725Z,7.68
2022-10-23T06:18:57.502Z,7.70
2022-10-23T06:21:27.079Z,7.72
2022-10-23T06:24:19.899Z,7.75
2022-10-23T06:26:55.548Z,7.77
2022-10-23T06:29:34.950Z,7.80
2022-10-23T06:32:02.775Z,7.82
2022-10-23T06:34:30.744Z,7.83
2022-10-23T06:37:00.019Z,7.86
2022-10-23T06:39:36.788Z,7.90
2022-10-23T06:42:33.564Z,7.93
2022-10-23T06:45:21.623Z,7.95
2022-10-23T06:47:51.133Z,7.99
2022-10-23T06:50:38.225Z,8.02
2022-10-23T06:53:13.387Z,8.04
2022-10-23T06:55:50.066Z,8.07
2022-10-23T06:58:21.111Z,8.10
2022-10-23T07:01:16.272Z,8.14
2022-10-23T07:03:45.626Z,8.16
2022-10-23T07:06:14.000Z,8.19
2022-10-23T07:08:43.459Z,8.23
2022-10-23T07:11:34.012Z,8.27
2022-10-23T07:14:03.076Z,8.32
2022-10-23T07:16:32.060Z,8.35
2022-10-23T07:19:01.257Z,8.40
2022-10-23T07:21:30.715Z,8.43
2022-10-23T07:24:13.938Z,8.47
2022-10-23T07:26:42.507Z,8.53
2022-10-23T07:29:11.464Z,8.58
2022-10-23T07:31:39.278Z,8.63
2022-10-23T07:34:41.948Z,8.70
2022-10-23T07:37:36.158Z,8.76
2022-10-23T07:40:08.252Z,8.81
2022-10-23T07:42:43.047Z,8.88
2022-10-23T07:45:12.780Z,8.94
2022-10-23T07:47:45.324Z,9.00
2022-10-23T07:50:14.564Z,9.05
2022-10-23T07:52:42.678Z,9.14
2022-10-23T07:55:19.023Z,9.22
2022-10-23T07:57:50.879Z,9.30
2022-10-23T08:00:36.121Z,9.40
2022-10-23T08:03:13.930Z,9.50
2022-10-23T08:05:42.932Z,9.61
2022-10-23T08:08:10.771Z,9.71
2022-10-23T08:10:42.617Z,9.80
2022-10-23T08:13:14.681Z,9.87
2022-10-23T08:15:58.508Z,9.98
2022-10-23T08:18:45.355Z,10.08
2022-10-23T08:21:13.557Z,10.15
2022-10-23T08:23:41.535Z,10.21
2022-10-23T08:26:11.288Z,10.29
2022-10-23T08:28:39.779Z,10.36
2022-10-23T08:31:09.726Z,10.44
2022-10-23T08:33:37.925Z,10.55
2022-10-23T08:36:06.681Z,10.63
2022-10-23T08:38:36.140Z,10.72
2022-10-23T08:41:07.603Z,10.81
2022-10-23T08:44:10.845Z,10.95
2022-10-23T08:46:47.430Z,11.05
2022-10-23T08:49:44.124Z,11.20
2022-10-23T08:52:20.363Z,11.31
2022-10-23T08:54:58.293Z,11.40
2022-10-23T08:57:33.462Z,11.52
2022-10-23T09:00:06.870Z,11.65
2022-10-23T09:02:39.602Z,11.76
2022-10-23T09:05:15.211Z,11.87
2022-10-23T09:07:57.133Z,12.00
2022-10-23T09:10:48.064Z,12.15
2022-10-23T09:13:53.866Z,12.32
2022-10-23T09:16:37.777Z,12.45
2022-10-23T09:19:19.117Z,12.59
2022-10-23T09:21:50.360Z,12.68
2022-10-23T09:24:20.273Z,12.77
2022-10-23T09:26:49.952Z,12.85
2022-10-23T09:29:24.542Z,12.94
2022-10-23T09:31:55.782Z,13.02
2022-10-23T09:34:25.751Z,13.10
2022-10-23T09:39:31.281Z,13.28
2022-10-23T09:42:02.341Z,13.36
2022-10-23T09:44:31.575Z,13.46
2022-10-23T09:47:11.289Z,13.58
2022-10-23T09:49:41.825Z,13.65
2022-10-23T09:52:25.132Z,13.75
2022-10-23T09:54:57.113Z,13.88
2022-10-23T09:57:29.613Z,13.99
2022-10-23T09:59:58.194Z,14.07
2022-10-23T10:02:30.688Z,14.19
2022-10-23T10:05:25.046Z,14.31
2022-10-23T10:07:59.896Z,14.42
2022-10-23T10:10:32.553Z,14.49
2022-10-23T10:13:04.780Z,14.59
2022-10-23T10:15:38.548Z,14.69
2022-10-23T10:18:16.141Z,14.80
2022-10-23T10:21:10.262Z,14.88
2022-10-23T10:23:46.626Z,14.92
2022-10-23T10:29:12.578Z,15.02
2022-10-23T10:31:53.224Z,15.06
2022-10-23T10:34:30.237Z,15.13
2022-10-23T10:37:03.861Z,15.21
2022-10-23T10:39:42.982Z,15.28
2022-10-23T10:42:47.406Z,15.34
2022-10-23T10:45:27.003Z,15.42
2022-10-23T10:48:16.023Z,15.49
2022-10-23T10:51:08.639Z,15.59
2022-10-23T10:53:58.566Z,15.68
2022-10-23T10:56:30.390Z,15.79
2022-10-23T10:59:02.738Z,15.85
2022-10-23T11:01:36.219Z,15.92
2022-10-23T11:04:12.268Z,15.95
2022-10-23T11:06:44.564Z,16.00
2022-10-23T11:09:20.768Z,16.06
2022-10-23T11:11:49.977Z,16.10
2022-10-23T11:14:18.693Z,16.15
2022-10-23T11:16:49.048Z,16.21
2022-10-23T11:19:26.363Z,16.26
2022-10-23T11:22:00.669Z,16.29
2022-10-23T11:25:04.615Z,16.30
2022-10-23T11:27:54.086Z,16.34
2022-10-23T11:30:28.965Z,16.37
2022-10-23T11:33:23.620Z,16.38
2022-10-23T11:36:02.011Z,16.39
2022-10-23T11:38:34.298Z,16.38
2022-10-23T11:41:05.428Z,16.39
2022-10-23T11:43:36.920Z,16.40
2022-10-23T11:46:15.531Z,16.37
2022-10-23T11:48:44.775Z,16.37
2022-10-23T11:51:28.573Z,16.38
2022-10-23T11:54:27.086Z,16.39
2022-10-23T11:57:09.153Z,16.40
2022-10-23T11:59:53.843Z,16.45
2022-10-23T12:02:31.921Z,16.49
2022-10-23T12:05:04.340Z,16.51
2022-10-23T12:07:34.247Z,16.52
2022-10-23T12:10:05.638Z,16.52
2022-10-23T12:12:35.255Z,16.52
2022-10-23T12:15:22.625Z,16.55
2022-10-23T12:17:52.197Z,16.55
2022-10-23T12:20:36.316Z,16.56
2022-10-23T12:23:21.900Z,16.55
2022-10-23T12:26:07.699Z,16.56
2022-10-23T12:28:41.875Z,16.55
2022-10-23T12:31:25.228Z,16.53
2022-10-23T12:34:03.259Z,16.52
2022-10-23T12:36:49.466Z,16.49
2022-10-23T12:39:27.830Z,16.48
2022-10-23T12:41:58.027Z,16.45
2022-10-23T12:44:27.043Z,16.43
2022-10-23T12:46:59.300Z,16.43
2022-10-23T12:49:31.435Z,16.42
2022-10-23T12:52:25.517Z,16.40
2022-10-23T12:54:53.433Z,16.39
2022-10-23T12:57:26.092Z,16.37
2022-10-23T12:59:57.480Z,16.39
2022-10-23T13:02:28.366Z,16.37
2022-10-23T13:04:59.203Z,16.38
2022-10-23T13:07:30.057Z,16.37
2022-10-23T13:10:01.786Z,16.34
2022-10-23T13:12:41.625Z,16.32
2022-10-23T13:15:18.678Z,16.31
2022-10-23T13:17:49.043Z,16.30
2022-10-23T13:20:27.334Z,16.26
2022-10-23T13:23:00.947Z,16.25
2022-10-23T13:25:33.239Z,16.24
2022-10-23T13:28:25.160Z,16.23
2022-10-23T13:31:25.944Z,16.20
2022-10-23T13:34:08.169Z,16.17
2022-10-23T13:36:39.415Z,16.15
2022-10-23T13:39:15.513Z,16.10
2022-10-23T13:41:48.681Z,16.08
2022-10-23T13:44:21.662Z,16.03
2022-10-23T13:46:54.484Z,16.03
2022-10-23T13:49:22.411Z,16.01
2022-10-23T13:51:54.902Z,16.00
2022-10-23T13:54:24.705Z,15.98
2022-10-23T13:56:55.073Z,15.94
2022-10-23T13:59:25.051Z,15.93
2022-10-23T14:01:53.065Z,15.89
2022-10-23T14:04:21.401Z,15.87
2022-10-23T14:06:49.515Z,15.86
2022-10-23T14:09:19.497Z,15.88
2022-10-23T14:11:47.780Z,15.89
2022-10-23T14:14:15.786Z,15.87
2022-10-23T14:16:44.918Z,15.88
2022-10-23T14:19:12.825Z,15.90
2022-10-23T14:21:40.796Z,15.92
2022-10-23T14:24:09.894Z,15.94
2022-10-23T14:26:38.065Z,15.98
2022-10-23T14:29:09.821Z,16.02
2022-10-23T14:31:39.407Z,16.05
2022-10-23T14:34:08.559Z,16.04
2022-10-23T14:36:49.353Z,16.06
2022-10-23T14:39:19.052Z,16.07
2022-10-23T14:41:46.855Z,16.07
2022-10-23T14:44:15.040Z,16.06
2022-10-23T14:46:42.908Z,16.06
2022-10-23T14:49:12.051Z,16.05
2022-10-23T14:51:39.891Z,16.03
2022-10-23T14:54:09.224Z,16.03
2022-10-23T14:56:39.432Z,16.00
2022-10-23T14:59:08.143Z,15.99
2022-10-23T15:01:43.507Z,15.94
2022-10-23T15:04:15.586Z,15.90
2022-10-23T15:06:43.874Z,15.86
2022-10-23T15:09:11.683Z,15.82
2022-10-23T15:11:39.567Z,15.77
2022-10-23T15:14:07.724Z,15.71
2022-10-23T15:16:41.129Z,15.67
2022-10-23T15:19:13.512Z,15.60
2022-10-23T15:21:46.792Z,15.56
2022-10-23T15:24:14.653Z,15.51
2022-10-23T15:26:43.253Z,15.45
2022-10-23T15:29:12.156Z,15.40
2022-10-23T15:31:45.777Z,15.31
2022-10-23T15:34:16.013Z,15.24
2022-10-23T15:36:44.861Z,15.18
2022-10-23T15:39:15.667Z,15.11
2022-10-23T15:41:44.011Z,15.04
2022-10-23T15:44:15.135Z,14.97
2022-10-23T15:46:43.046Z,14.90
2022-10-23T15:49:10.984Z,14.83
2022-10-23T15:51:39.943Z,14.77
2022-10-23T15:54:09.395Z,14.71
2022-10-23T15:56:38.641Z,14.68
2022-10-23T15:59:06.446Z,14.63
2022-10-23T16:04:28.488Z,14.47
2022-10-23T16:06:56.463Z,14.39
2022-10-23T16:09:24.293Z,14.31
2022-10-23T16:11:53.464Z,14.23
2022-10-23T16:14:21.289Z,14.19
2022-10-23T16:16:49.114Z,14.14
2022-10-23T16:19:17.048Z,14.09
2022-10-23T16:21:44.960Z,14.06
2022-10-23T16:24:12.928Z,14.04
2022-10-23T16:26:41.258Z,14.01
2022-10-23T16:29:10.907Z,13.99
2022-10-23T16:31:38.876Z,13.97
2022-10-23T16:34:07.314Z,13.99
2022-10-23T16:36:38.841Z,14.03
2022-10-23T16:39:25.977Z,14.06
2022-10-23T16:42:12.624Z,14.10
2022-10-23T16:45:01.792Z,14.16
2022-10-23T16:47:31.932Z,14.19
2022-10-23T16:49:59.792Z,14.20
2022-10-23T16:52:28.613Z,14.20
2022-10-23T16:54:56.541Z,14.19
2022-10-23T16:57:24.415Z,14.19
2022-10-23T16:59:52.287Z,14.19
2022-10-23T17:02:21.547Z,14.18
2022-10-23T17:04:49.419Z,14.15
2022-10-23T17:07:17.503Z,14.16
2022-10-23T17:09:46.530Z,14.17
2022-10-23T17:12:14.662Z,14.19
2022-10-23T17:14:42.594Z,14.22
2022-10-23T17:17:10.898Z,14.21
2022-10-23T17:19:46.085Z,14.22
2022-10-23T17:22:14.884Z,14.24
2022-10-23T17:24:46.190Z,14.27
2022-10-23T17:27:16.674Z,14.29
2022-10-23T17:29:44.881Z,14.30
2022-10-23T17:32:12.700Z,14.30
2022-10-23T17:34:41.973Z,14.30
2022-10-23T17:37:10.229Z,14.29
2022-10-23T17:39:38.017Z,14.28
2022-10-23T17:42:05.943Z,14.27
2022-10-23T17:44:33.873Z,14.27
2022-10-23T17:47:01.726Z,14.29
2022-10-23T17:49:29.606Z,14.28
2022-10-23T17:51:59.197Z,14.27
2022-10-23T17:54:28.363Z,14.26
2022-10-23T17:56:56.592Z,14.25
2022-10-23T17:59:24.550Z,14.24
2022-10-23T18:01:52.557Z,14.22
2022-10-23T18:04:21.557Z,14.19
2022-10-23T18:06:52.367Z,14.17
2022-10-23T18:09:22.718Z,14.13
2022-10-23T18:11:50.744Z,14.09
2022-10-23T18:14:20.566Z,14.05
2022-10-23T18:16:48.856Z,14.02
2022-10-23T18:19:18.728Z,14.02
2022-10-23T18:21:47.233Z,14.01
2022-10-23T18:24:16.851Z,13.99
2022-10-23T18:26:47.911Z,13.97
2022-10-23T18:29:17.389Z,13.97
2022-10-23T18:31:48.066Z,13.96
2022-10-23T18:34:18.874Z,13.94
2022-10-23T18:36:47.280Z,13.94
2022-10-23T18:39:18.085Z,13.96
2022-10-23T18:41:47.594Z,13.96
2022-10-23T18:44:18.362Z,13.95
2022-10-23T18:46:46.647Z,13.94
2022-10-23T18:49:14.797Z,13.94
2022-10-23T18:51:42.821Z,13.95
2022-10-23T18:54:13.788Z,13.93
2022-10-23T18:56:42.067Z,13.90
2022-10-23T18:59:14.881Z,13.87
2022-10-23T19:01:43.456Z,13.82
2022-10-23T19:04:14.054Z,13.77
2022-10-23T19:06:41.994Z,13.74
2022-10-23T19:09:11.344Z,13.70
2022-10-23T19:11:40.396Z,13.67
2022-10-23T19:14:08.503Z,13.62
2022-10-23T19:16:41.337Z,13.59
2022-10-23T19:19:15.750Z,13.58
2022-10-23T19:21:44.674Z,13.56
2022-10-23T19:24:16.389Z,13.54
2022-10-23T19:26:45.173Z,13.53
2022-10-23T19:29:16.380Z,13.52
2022-10-23T19:31:49.174Z,13.49
2022-10-23T19:34:19.877Z,13.49
2022-10-23T19:36:48.077Z,13.45
2022-10-23T19:39:16.137Z,13.42
2022-10-23T19:41:44.161Z,13.38
2022-10-23T19:44:12.453Z,13.36
2022-10-23T19:46:40.262Z,13.36
2022-10-23T19:49:09.885Z,13.32
2022-10-23T19:51:38.129Z,13.31
2022-10-23T19:54:06.937Z,13.28
2022-10-23T19:56:34.859Z,13.27
2022-10-23T19:59:02.791Z,13.25
2022-10-23T20:01:30.817Z,13.24
2022-10-23T20:03:58.852Z,13.23
2022-10-23T20:06:30.065Z,13.21
2022-10-23T20:08:58.301Z,13.20
2022-10-23T20:11:29.467Z,13.20
2022-10-23T20:13:58.462Z,13.18
2022-10-23T20:16:28.377Z,13.19
2022-10-23T20:18:56.797Z,13.18
2022-10-23T20:21:25.755Z,13.19
2022-10-23T20:23:55.032Z,13.18
2022-10-23T20:26:22.904Z,13.17
2022-10-23T20:28:54.294Z,13.18
2022-10-23T20:31:24.532Z,13.17
2022-10-23T20:33:53.060Z,13.16
2022-10-23T20:36:28.251Z,13.16
2022-10-23T20:38:59.026Z,13.14
2022-10-23T20:41:28.888Z,13.13
2022-10-23T20:43:57.263Z,13.11
2022-10-23T20:46:25.175Z,13.09
2022-10-23T20:48:53.764Z,13.06
2022-10-23T20:51:23.355Z,13.03
2022-10-23T20:53:52.118Z,13.00
2022-10-23T20:56:29.812Z,12.97
2022-10-23T20:58:57.955Z,12.93
2022-10-23T21:01:26.406Z,12.90
2022-10-23T21:03:57.059Z,12.91
2022-10-23T21:06:26.270Z,12.92
2022-10-23T21:08:56.182Z,12.94
2022-10-23T21:11:26.221Z,12.94
2022-10-23T21:13:56.848Z,12.92
2022-10-23T21:16:28.669Z,12.93
2022-10-23T21:18:57.819Z,12.91
2022-10-23T21:21:26.841Z,12.91
2022-10-23T21:23:56.664Z,12.90
2022-10-23T21:26:26.642Z,12.91
2022-10-23T21:29:06.627Z,12.91
2022-10-23T21:31:43.295Z,12.90
2022-10-23T21:37:10.889Z,12.93
2022-10-23T21:39:34.321Z,12.94
2022-10-23T21:42:03.539Z,12.94
2022-10-23T21:44:31.354Z,12.94
2022-10-23T21:46:59.222Z,12.94
2022-10-23T21:49:26.973Z,12.93
2022-10-23T21:51:55.142Z,12.93
2022-10-23T21:54:23.698Z,12.94
2022-10-23T21:56:53.431Z,12.94
2022-10-23T21:59:25.885Z,12.95
2022-10-23T22:01:55.824Z,12.98
2022-10-23T22:06:34.675Z,13.00
2022-10-23T22:09:02.537Z,13.02
2022-10-23T22:11:30.555Z,13.04
2022-10-23T22:13:59.684Z,13.06
2022-10-23T22:16:28.159Z,13.07
2022-10-23T22:18:56.231Z,13.07
2022-10-23T22:21:25.613Z,13.07
2022-10-23T22:23:57.615Z,13.08
2022-10-23T22:26:29.444Z,13.09
2022-10-23T22:28:58.873Z,13.10
2022-10-23T22:31:29.629Z,13.09
2022-10-23T22:33:58.023Z,13.08
2022-10-23T22:36:26.807Z,13.09
2022-10-23T22:38:56.790Z,13.10
2022-10-23T22:41:24.988Z,13.10
2022-10-23T22:43:56.448Z,13.13
2022-10-23T22:46:26.102Z,13.14
2022-10-23T22:48:54.331Z,13.13
2022-10-23T22:51:24.183Z,13.12
2022-10-23T22:53:52.032Z,13.09
2022-10-23T22:56:22.944Z,13.09
2022-10-23T22:58:51.665Z,13.08
2022-10-23T23:01:23.281Z,13.07
2022-10-23T23:03:52.396Z,13.08
2022-10-23T23:06:21.679Z,13.07
2022-10-23T23:08:50.578Z,13.05
2022-10-23T23:11:19.784Z,13.04
2022-10-23T23:13:50.118Z,13.02
2022-10-23T23:16:21.197Z,13.00
2022-10-23T23:18:49.158Z,12.99
2022-10-23T23:21:17.788Z,12.98
2022-10-23T23:23:46.100Z,12.96
2022-10-23T23:26:14.889Z,12.92
2022-10-23T23:28:42.995Z,12.90
2022-10-23T23:31:14.727Z,12.86
2022-10-23T23:33:42.608Z,12.82
2022-10-23T23:36:13.172Z,12.79
2022-10-23T23:38:41.104Z,12.76
2022-10-23T23:41:13.357Z,12.74
2022-10-23T23:43:41.608Z,12.73
2022-10-23T23:46:09.703Z,12.71
2022-10-23T23:48:39.652Z,12.68
2022-10-23T23:51:07.804Z,12.68
2022-10-23T23:53:35.685Z,12.68
2022-10-23T23:56:03.412Z,12.70
2022-10-23T23:58:31.337Z,12.69
